createdAt,value
2022-10-11T00:01:48.658Z,100640.22
2022-10-11T00:04:16.561Z,100657.28
2022-10-11T00:06:44.371Z,100661.63
2022-10-11T00:09:14.408Z,100660.38
2022-10-11T00:11:42.986Z,100672.19
2022-10-11T00:14:10.838Z,100667.41
2022-10-11T00:16:41.461Z,100672.75
2022-10-11T00:19:09.120Z,100668.16
2022-10-11T00:21:37.066Z,100681.81
2022-10-11T00:24:05.184Z,100688.25
2022-10-11T00:26:34.283Z,100689.50
2022-10-11T00:29:01.837Z,100693.63
2022-10-11T00:31:34.711Z,100695.69
2022-10-11T00:34:03.182Z,100700.84
2022-10-11T00:36:30.976Z,100701.25
2022-10-11T00:38:58.536Z,100707.91
2022-10-11T00:41:26.280Z,100707.28
2022-10-11T00:44:11.062Z,100709.50
2022-10-11T00:46:39.684Z,100702.66
2022-10-11T00:49:15.651Z,100716.09
2022-10-11T00:51:48.721Z,100717.91
2022-10-11T00:54:19.649Z,100721.69
2022-10-11T00:56:51.293Z,100724.94
2022-10-11T00:59:25.906Z,100717.66
2022-10-11T01:01:53.667Z,100719.88
2022-10-11T01:04:21.285Z,100714.97
2022-10-11T01:06:50.456Z,100727.13
2022-10-11T01:09:19.794Z,100725.13
2022-10-11T01:11:49.433Z,100725.69
2022-10-11T01:14:45.774Z,100731.91
2022-10-11T01:17:22.604Z,100724.63
2022-10-11T01:20:03.622Z,100733.38
2022-10-11T01:22:51.930Z,100734.53
2022-10-11T01:25:27.763Z,100751.31
2022-10-11T01:28:15.847Z,100746.25
2022-10-11T01:30:45.178Z,100752.47
2022-10-11T01:33:28.365Z,100757.13
2022-10-11T01:36:06.286Z,100750.31
2022-10-11T01:38:38.915Z,100755.66
2022-10-11T01:41:10.715Z,100755.25
2022-10-11T01:43:39.886Z,100759.06
2022-10-11T01:46:10.226Z,100757.41
2022-10-11T01:48:48.109Z,100767.34
2022-10-11T01:51:16.554Z,100764.56
2022-10-11T01:54:00.266Z,100773.19
2022-10-11T01:56:43.695Z,100765.53
2022-10-11T01:59:23.083Z,100771.63
2022-10-11T02:01:59.360Z,100774.69
2022-10-11T02:04:32.127Z,100773.50
2022-10-11T02:07:02.224Z,100779.88
2022-10-11T02:09:36.235Z,100786.38
2022-10-11T02:12:08.499Z,100786.19
2022-10-11T02:14:40.576Z,100788.03
2022-10-11T02:17:13.036Z,100789.81
2022-10-11T02:19:45.769Z,100785.88
2022-10-11T02:22:20.322Z,100786.25
2022-10-11T02:24:52.588Z,100789.69
2022-10-11T02:27:23.961Z,100789.50
2022-10-11T02:29:53.520Z,100791.44
2022-10-11T02:32:24.120Z,100790.16
2022-10-11T02:34:54.949Z,100794.69
2022-10-11T02:37:29.045Z,100803.16
2022-10-11T02:40:04.036Z,100795.78
2022-10-11T02:42:37.186Z,100793.94
2022-10-11T02:45:11.271Z,100797.53
2022-10-11T02:47:42.504Z,100794.06
2022-10-11T02:50:12.412Z,100798.16
2022-10-11T02:52:47.285Z,100809.22
2022-10-11T02:55:14.852Z,100795.81
2022-10-11T02:57:42.447Z,100789.88
2022-10-11T03:00:11.302Z,100807.34
2022-10-11T03:02:40.222Z,100804.19
2022-10-11T03:05:08.628Z,100813.06
2022-10-11T03:07:38.659Z,100807.94
2022-10-11T03:10:07.966Z,100812.16
2022-10-11T03:12:35.651Z,100808.50
2022-10-11T03:15:03.565Z,100811.84
2022-10-11T03:17:36.621Z,100811.34
2022-10-11T03:20:07.652Z,100813.38
2022-10-11T03:22:35.639Z,100813.72
2022-10-11T03:25:04.644Z,100816.59
2022-10-11T03:27:32.671Z,100812.72
2022-10-11T03:30:00.744Z,100814.94
2022-10-11T03:32:28.891Z,100818.84
2022-10-11T03:34:56.623Z,100822.00
2022-10-11T03:37:25.746Z,100821.19
2022-10-11T03:39:53.420Z,100828.78
2022-10-11T03:42:21.479Z,100823.72
2022-10-11T03:44:51.316Z,100827.22
2022-10-11T03:47:19.135Z,100829.75
2022-10-11T03:49:46.802Z,100830.13
2022-10-11T03:52:14.419Z,100833.38
2022-10-11T03:54:43.389Z,100835.38
2022-10-11T03:57:11.184Z,100844.78
2022-10-11T03:59:38.775Z,100837.25
2022-10-11T04:02:06.467Z,100835.56
2022-10-11T04:04:34.400Z,100839.25
2022-10-11T04:07:02.094Z,100839.94
2022-10-11T04:09:30.052Z,100843.31
2022-10-11T04:12:01.883Z,100840.81
2022-10-11T04:14:29.765Z,100838.66
2022-10-11T04:17:00.264Z,100845.53
2022-10-11T04:19:28.835Z,100848.03
2022-10-11T04:21:56.605Z,100854.28
2022-10-11T04:24:29.268Z,100849.59
2022-10-11T04:27:08.196Z,100853.25
2022-10-11T04:29:38.599Z,100864.19
2022-10-11T04:32:06.353Z,100862.88
2022-10-11T04:34:34.098Z,100868.69
2022-10-11T04:37:01.786Z,100863.69
2022-10-11T04:39:29.505Z,100873.22
2022-10-11T04:41:57.227Z,100876.91
2022-10-11T04:44:26.259Z,100875.75
2022-10-11T04:46:53.988Z,100876.09
2022-10-11T04:49:21.916Z,100874.91
2022-10-11T04:51:49.707Z,100870.41
2022-10-11T04:54:17.655Z,100882.16
2022-10-11T04:56:45.354Z,100885.69
2022-10-11T04:59:13.101Z,100896.56
2022-10-11T05:01:42.144Z,100891.34
2022-10-11T05:04:09.754Z,100895.03
2022-10-11T05:06:37.371Z,100894.19
2022-10-11T05:09:05.123Z,100900.09
2022-10-11T05:11:32.690Z,100897.41
2022-10-11T05:14:00.612Z,100909.63
2022-10-11T05:16:28.523Z,100906.63
2022-10-11T05:18:57.492Z,100912.13
2022-10-11T05:21:26.604Z,100910.81
2022-10-11T05:23:56.182Z,100909.78
2022-10-11T05:26:25.503Z,100915.31
2022-10-11T05:28:53.453Z,100922.84
2022-10-11T05:31:21.619Z,100917.97
2022-10-11T05:33:49.577Z,100926.00
2022-10-11T05:36:18.583Z,100932.13
2022-10-11T05:38:49.130Z,100939.97
2022-10-11T05:41:17.541Z,100929.97
2022-10-11T05:43:45.903Z,100936.69
2022-10-11T05:46:14.501Z,100936.53
2022-10-11T05:48:42.086Z,100946.56
2022-10-11T05:51:10.830Z,100960.25
2022-10-11T05:53:40.581Z,100961.78
2022-10-11T05:56:18.908Z,100959.94
2022-10-11T05:58:46.569Z,100967.97
2022-10-11T06:01:19.678Z,100969.81
2022-10-11T06:03:47.543Z,100960.13
2022-10-11T06:06:15.252Z,100962.66
2022-10-11T06:08:53.302Z,100971.22
2022-10-11T06:11:47.263Z,100976.06
2022-10-11T06:14:27.799Z,100984.16
2022-10-11T06:16:57.467Z,100995.44
2022-10-11T06:19:33.233Z,100983.94
2022-10-11T06:22:13.208Z,100994.94
2022-10-11T06:25:32.741Z,100994.63
2022-10-11T06:28:15.698Z,101003.97
2022-10-11T06:30:47.779Z,101003.69
2022-10-11T06:33:16.266Z,101007.22
2022-10-11T06:35:43.885Z,101012.53
2022-10-11T06:38:11.548Z,101021.72
2022-10-11T06:40:39.485Z,101016.78
2022-10-11T06:43:08.424Z,101019.97
2022-10-11T06:45:36.397Z,101027.72
2022-10-11T06:48:05.696Z,101029.88
2022-10-11T06:50:58.035Z,101033.97
2022-10-11T06:53:21.394Z,101027.97
2022-10-11T06:55:49.276Z,101039.78
2022-10-11T06:58:18.415Z,101038.34
2022-10-11T07:00:46.162Z,101031.03
2022-10-11T07:03:13.845Z,101028.56
2022-10-11T07:05:41.469Z,101030.41
2022-10-11T07:08:09.043Z,101033.31
2022-10-11T07:10:37.491Z,101038.69
2022-10-11T07:13:06.842Z,101042.09
2022-10-11T07:15:41.083Z,101040.66
2022-10-11T07:18:08.725Z,101042.22
2022-10-11T07:20:37.167Z,101036.47
2022-10-11T07:23:04.827Z,101039.38
2022-10-11T07:25:32.426Z,101042.53
2022-10-11T07:28:00.207Z,101044.53
2022-10-11T07:30:27.964Z,101030.91
2022-10-11T07:32:57.054Z,101043.66
2022-10-11T07:35:24.814Z,101038.97
2022-10-11T07:37:52.494Z,101041.25
2022-10-11T07:40:20.351Z,101040.41
2022-10-11T07:42:48.148Z,101053.50
2022-10-11T07:45:15.875Z,101037.72
2022-10-11T07:47:46.307Z,101035.22
2022-10-11T07:50:15.354Z,101039.16
2022-10-11T07:52:43.064Z,101028.38
2022-10-11T07:55:10.859Z,101031.50
2022-10-11T07:57:38.523Z,101036.94
2022-10-11T08:00:07.880Z,101038.94
2022-10-11T08:02:35.626Z,101043.97
2022-10-11T08:05:03.396Z,101042.31
2022-10-11T08:07:32.485Z,101053.72
2022-10-11T08:10:00.672Z,101055.84
2022-10-11T08:12:28.311Z,101050.63
2022-10-11T08:14:56.193Z,101051.00
2022-10-11T08:17:23.936Z,101060.09
2022-10-11T08:19:51.773Z,101056.84
2022-10-11T08:22:19.495Z,101057.22
2022-10-11T08:24:50.167Z,101054.53
2022-10-11T08:27:17.786Z,101056.63
2022-10-11T08:29:45.773Z,101054.09
2022-10-11T08:32:13.360Z,101063.22
2022-10-11T08:34:40.915Z,101054.56
2022-10-11T08:37:08.609Z,101060.53
2022-10-11T08:39:36.524Z,101050.00
2022-10-11T08:42:12.193Z,101061.97
2022-10-11T08:45:09.056Z,101052.22
2022-10-11T08:47:36.792Z,101063.91
2022-10-11T08:50:06.392Z,101064.22
2022-10-11T08:52:43.618Z,101055.09
2022-10-11T08:55:19.150Z,101065.16
2022-10-11T08:57:54.029Z,101058.03
2022-10-11T09:00:22.848Z,101067.66
2022-10-11T09:03:13.941Z,101065.25
2022-10-11T09:05:55.342Z,101065.16
2022-10-11T09:08:34.519Z,101062.56
2022-10-11T09:11:09.901Z,101068.50
2022-10-11T09:13:57.621Z,101064.22
2022-10-11T09:16:37.809Z,101062.84
2022-10-11T09:19:34.408Z,101065.06
2022-10-11T09:22:10.313Z,101070.84
2022-10-11T09:24:50.488Z,101060.34
2022-10-11T09:27:33.221Z,101063.09
2022-10-11T09:30:16.312Z,101069.44
2022-10-11T09:32:47.382Z,101073.03
2022-10-11T09:35:18.319Z,101064.44
2022-10-11T09:37:55.032Z,101059.50
2022-10-11T09:40:46.249Z,101061.81
2022-10-11T09:43:14.166Z,101066.41
2022-10-11T09:45:49.253Z,101072.34
2022-10-11T09:48:21.169Z,101067.34
2022-10-11T09:50:50.635Z,101065.63
2022-10-11T09:53:19.318Z,101071.84
2022-10-11T09:55:53.082Z,101067.41
2022-10-11T09:58:30.272Z,101062.09
2022-10-11T10:01:07.587Z,101062.25
2022-10-11T10:03:37.663Z,101068.31
2022-10-11T10:06:08.865Z,101071.28
2022-10-11T10:08:37.594Z,101064.78
2022-10-11T10:11:07.702Z,101066.25
2022-10-11T10:13:44.032Z,101069.28
2022-10-11T10:16:23.742Z,101061.88
2022-10-11T10:18:54.216Z,101061.56
2022-10-11T10:21:28.577Z,101054.41
2022-10-11T10:23:57.731Z,101064.56
2022-10-11T10:26:27.386Z,101062.69
2022-10-11T10:29:01.281Z,101058.97
2022-10-11T10:31:49.495Z,101043.28
2022-10-11T10:34:28.790Z,101041.34
2022-10-11T10:36:59.050Z,101040.19
2022-10-11T10:39:34.248Z,101041.34
2022-10-11T10:42:05.904Z,101044.84
2022-10-11T10:44:33.653Z,101041.34
2022-10-11T10:47:15.548Z,101039.69
2022-10-11T10:49:54.150Z,101033.34
2022-10-11T10:52:42.803Z,101043.56
2022-10-11T10:55:22.278Z,101045.38
2022-10-11T10:58:00.855Z,101052.31
2022-10-11T11:00:37.424Z,101053.47
2022-10-11T11:03:10.944Z,101041.63
2022-10-11T11:05:46.573Z,101043.28
2022-10-11T11:08:17.303Z,101044.34
2022-10-11T11:10:51.648Z,101044.44
2022-10-11T11:13:24.400Z,101038.41
2022-10-11T11:16:04.119Z,101046.91
2022-10-11T11:18:43.166Z,101036.34
2022-10-11T11:21:31.800Z,101038.28
2022-10-11T11:24:12.832Z,101032.38
2022-10-11T11:26:45.540Z,101034.53
2022-10-11T11:29:28.215Z,101032.78
2022-10-11T11:32:10.639Z,101025.28
2022-10-11T11:34:43.884Z,101027.22
2022-10-11T11:37:23.481Z,101031.66
2022-10-11T11:39:53.552Z,101016.00
2022-10-11T11:42:25.930Z,101016.91
2022-10-11T11:44:54.451Z,101017.66
2022-10-11T11:47:28.201Z,101013.28
2022-10-11T11:50:00.590Z,101015.41
2022-10-11T11:52:34.177Z,101005.16
2022-10-11T11:55:09.522Z,100994.72
2022-10-11T11:57:48.823Z,101003.66
2022-10-11T12:00:20.507Z,101001.38
2022-10-11T12:02:56.428Z,101004.09
2022-10-11T12:05:28.797Z,100998.88
2022-10-11T12:08:00.762Z,100994.16
2022-10-11T12:10:40.107Z,100994.66
2022-10-11T12:13:21.484Z,100993.84
2022-10-11T12:15:59.271Z,100994.25
2022-10-11T12:18:27.591Z,100983.44
2022-10-11T12:21:06.174Z,100983.84
2022-10-11T12:23:46.002Z,100980.97
2022-10-11T12:26:35.462Z,100969.75
2022-10-11T12:29:28.871Z,100967.94
2022-10-11T12:32:54.826Z,100954.84
2022-10-11T12:35:58.054Z,100952.34
2022-10-11T12:38:29.397Z,100939.16
2022-10-11T12:41:00.604Z,100947.13
2022-10-11T12:43:42.257Z,100938.41
2022-10-11T12:46:40.215Z,100936.72
2022-10-11T12:49:26.604Z,100931.78
2022-10-11T12:52:01.178Z,100932.59
2022-10-11T12:54:52.598Z,100936.50
2022-10-11T12:57:59.107Z,100927.16
2022-10-11T13:00:30.976Z,100927.78
2022-10-11T13:03:04.932Z,100928.63
2022-10-11T13:05:45.020Z,100928.81
2022-10-11T13:08:19.828Z,100930.91
2022-10-11T13:10:49.604Z,100923.03
2022-10-11T13:13:23.051Z,100931.53
2022-10-11T13:15:53.802Z,100936.56
2022-10-11T13:18:24.628Z,100924.09
2022-10-11T13:20:54.619Z,100926.59
2022-10-11T13:23:25.184Z,100926.59
2022-10-11T13:25:58.059Z,100918.47
2022-10-11T13:28:25.880Z,100915.78
2022-10-11T13:30:57.068Z,100923.25
2022-10-11T13:33:32.038Z,100917.44
2022-10-11T13:36:01.765Z,100923.88
2022-10-11T13:38:31.926Z,100914.53
2022-10-11T13:41:05.647Z,100920.75
2022-10-11T13:43:34.661Z,100922.63
2022-10-11T13:46:05.056Z,100914.50
2022-10-11T13:48:39.712Z,100915.53
2022-10-11T13:51:09.599Z,100904.91
2022-10-11T13:53:37.381Z,100908.44
2022-10-11T13:56:09.203Z,100911.75
2022-10-11T13:58:40.447Z,100903.25
2022-10-11T14:01:20.078Z,100905.53
2022-10-11T14:03:50.176Z,100902.34
2022-10-11T14:06:17.824Z,100903.19
2022-10-11T14:08:48.938Z,100898.44
2022-10-11T14:11:33.727Z,100898.69
2022-10-11T14:14:01.894Z,100900.97
2022-10-11T14:16:33.444Z,100889.28
2022-10-11T14:19:10.427Z,100893.44
2022-10-11T14:21:51.196Z,100898.28
2022-10-11T14:24:19.390Z,100896.44
2022-10-11T14:26:50.612Z,100894.97
2022-10-11T14:29:23.179Z,100885.78
2022-10-11T14:31:50.889Z,100898.09
2022-10-11T14:34:20.895Z,100895.59
2022-10-11T14:36:50.241Z,100885.19
2022-10-11T14:39:19.941Z,100890.00
2022-10-11T14:41:49.971Z,100883.53
2022-10-11T14:44:18.303Z,100885.19
2022-10-11T14:46:49.253Z,100887.28
2022-10-11T14:49:18.963Z,100885.63
2022-10-11T14:51:49.319Z,100895.78
2022-10-11T14:54:18.826Z,100890.41
2022-10-11T14:56:49.562Z,100896.63
2022-10-11T14:59:21.173Z,100888.09
2022-10-11T15:01:51.722Z,100885.81
2022-10-11T15:04:19.630Z,100887.69
2022-10-11T15:06:47.415Z,100873.31
2022-10-11T15:09:16.925Z,100881.44
2022-10-11T15:11:44.996Z,100871.66
2022-10-11T15:14:14.055Z,100871.84
2022-10-11T15:16:42.095Z,100873.72
2022-10-11T15:19:14.755Z,100873.31
2022-10-11T15:21:42.471Z,100875.81
2022-10-11T15:24:10.350Z,100873.72
2022-10-11T15:26:38.211Z,100874.97
2022-10-11T15:29:09.597Z,100875.59
2022-10-11T15:31:38.936Z,100874.16
2022-10-11T15:34:06.904Z,100869.97
2022-10-11T15:36:34.627Z,100878.50
2022-10-11T15:39:02.678Z,100868.91
2022-10-11T15:41:30.784Z,100862.28
2022-10-11T15:43:58.446Z,100864.53
2022-10-11T15:46:26.109Z,100866.19
2022-10-11T15:48:55.514Z,100876.81
2022-10-11T15:51:23.490Z,100879.28
2022-10-11T15:53:51.241Z,100883.44
2022-10-11T15:56:19.771Z,100874.50
2022-10-11T15:58:47.801Z,100876.19
2022-10-11T16:01:17.723Z,100878.19
2022-10-11T16:03:46.507Z,100882.16
2022-10-11T16:06:15.868Z,100877.16
2022-10-11T16:08:43.577Z,100876.75
2022-10-11T16:11:13.219Z,100880.16
2022-10-11T16:13:41.074Z,100881.38
2022-10-11T16:16:10.793Z,100886.09
2022-10-11T16:18:39.435Z,100885.06
2022-10-11T16:21:08.999Z,100886.19
2022-10-11T16:23:38.960Z,100878.94
2022-10-11T16:26:09.252Z,100881.63
2022-10-11T16:28:37.780Z,100879.09
2022-10-11T16:31:08.062Z,100886.28
2022-10-11T16:33:35.749Z,100889.78
2022-10-11T16:36:21.152Z,100889.31
2022-10-11T16:38:50.125Z,100889.09
2022-10-11T16:41:17.760Z,100884.53
2022-10-11T16:43:45.545Z,100888.19
2022-10-11T16:46:13.300Z,100892.91
2022-10-11T16:48:40.915Z,100900.66
2022-10-11T16:51:09.564Z,100901.81
2022-10-11T16:53:37.758Z,100903.09
2022-10-11T16:56:08.686Z,100903.34
2022-10-11T16:58:37.478Z,100903.00
2022-10-11T17:01:09.572Z,100895.34
2022-10-11T17:03:37.690Z,100900.72
2022-10-11T17:06:06.584Z,100903.16
2022-10-11T17:08:35.109Z,100907.25
2022-10-11T17:11:03.453Z,100907.06
2022-10-11T17:13:32.632Z,100904.19
2022-10-11T17:16:00.335Z,100913.09
2022-10-11T17:18:37.508Z,100917.19
2022-10-11T17:21:17.864Z,100918.47
2022-10-11T17:23:45.679Z,100915.41
2022-10-11T17:26:17.691Z,100912.81
2022-10-11T17:28:47.479Z,100920.50
2022-10-11T17:31:15.240Z,100920.31
2022-10-11T17:33:42.938Z,100913.56
2022-10-11T17:36:19.685Z,100917.91
2022-10-11T17:38:47.570Z,100919.03
2022-10-11T17:41:15.512Z,100916.97
2022-10-11T17:43:43.514Z,100916.78
2022-10-11T17:46:14.990Z,100917.44
2022-10-11T17:48:44.474Z,100914.66
2022-10-11T17:51:14.189Z,100920.78
2022-10-11T17:53:42.747Z,100917.19
2022-10-11T17:56:12.543Z,100921.19
2022-10-11T17:58:40.732Z,100925.41
2022-10-11T18:01:10.783Z,100918.56
2022-10-11T18:03:40.515Z,100921.06
2022-10-11T18:06:09.933Z,100931.28
2022-10-11T18:08:40.560Z,100931.09
2022-10-11T18:11:12.518Z,100928.59
2022-10-11T18:13:42.929Z,100932.75
2022-10-11T18:16:11.376Z,100926.00
2022-10-11T18:18:41.103Z,100935.97
2022-10-11T18:21:09.287Z,100939.31
2022-10-11T18:23:38.403Z,100945.97
2022-10-11T18:26:11.174Z,100936.09
2022-10-11T18:28:39.195Z,100938.09
2022-10-11T18:31:12.590Z,100940.41
2022-10-11T18:33:45.404Z,100937.31
2022-10-11T18:36:14.773Z,100938.88
2022-10-11T18:38:46.913Z,100936.25
2022-10-11T18:41:16.544Z,100942.25
2022-10-11T18:43:50.192Z,100945.75
2022-10-11T18:46:18.259Z,100942.47
2022-10-11T18:48:49.511Z,100944.41
2022-10-11T18:51:19.269Z,100942.94
2022-10-11T18:53:47.731Z,100943.34
2022-10-11T18:56:17.219Z,100943.22
2022-10-11T18:58:45.809Z,100947.38
2022-10-11T19:01:16.412Z,100945.38
2022-10-11T19:03:44.729Z,100936.50
2022-10-11T19:06:17.700Z,100946.94
2022-10-11T19:08:46.413Z,100940.44
2022-10-11T19:11:15.612Z,100942.41
2022-10-11T19:13:44.100Z,100942.81
2022-10-11T19:16:14.066Z,100946.69
2022-10-11T19:18:44.649Z,100936.66
2022-10-11T19:21:14.428Z,100943.41
2022-10-11T19:23:43.464Z,100955.69
2022-10-11T19:26:15.142Z,100946.25
2022-10-11T19:28:43.546Z,100954.00
2022-10-11T19:31:14.293Z,100953.69
2022-10-11T19:33:41.987Z,100950.03
2022-10-11T19:36:14.385Z,100958.38
2022-10-11T19:38:44.971Z,100954.22
2022-10-11T19:41:13.594Z,100948.69
2022-10-11T19:43:41.727Z,100956.34
2022-10-11T19:46:13.138Z,100952.16
2022-10-11T19:48:42.659Z,100955.84
2022-10-11T19:51:15.346Z,100946.19
2022-10-11T19:53:44.065Z,100952.56
2022-10-11T19:56:14.003Z,100956.56
2022-10-11T19:58:42.591Z,100952.03
2022-10-11T20:01:13.444Z,100953.69
2022-10-11T20:03:41.109Z,100949.97
2022-10-11T20:06:10.082Z,100953.72
2022-10-11T20:08:39.736Z,100949.41
2022-10-11T20:11:09.964Z,100951.59
2022-10-11T20:13:38.978Z,100947.19
2022-10-11T20:16:09.194Z,100953.09
2022-10-11T20:18:38.102Z,100961.47
2022-10-11T20:21:08.750Z,100956.59
2022-10-11T20:23:37.090Z,100956.78
2022-10-11T20:26:08.390Z,100956.13
2022-10-11T20:28:37.495Z,100965.16
2022-10-11T20:31:11.663Z,100960.34
2022-10-11T20:33:39.252Z,100952.13
2022-10-11T20:36:08.722Z,100955.16
2022-10-11T20:38:38.204Z,100946.09
2022-10-11T20:41:08.560Z,100952.81
2022-10-11T20:43:36.353Z,100944.59
2022-10-11T20:46:07.209Z,100954.47
2022-10-11T20:48:36.686Z,100962.19
2022-10-11T20:51:04.741Z,100963.19
2022-10-11T20:53:32.270Z,100964.34
2022-10-11T20:55:59.842Z,100957.78
2022-10-11T20:58:28.807Z,100956.31
2022-10-11T21:00:56.481Z,100956.47
2022-10-11T21:03:24.236Z,100965.16
2022-10-11T21:05:58.960Z,100960.84
2022-10-11T21:08:26.932Z,100964.53
2022-10-11T21:10:55.561Z,100958.50
2022-10-11T21:13:23.920Z,100957.66
2022-10-11T21:15:52.893Z,100951.47
2022-10-11T21:18:20.854Z,100953.97
2022-10-11T21:20:48.719Z,100956.97
2022-10-11T21:23:18.773Z,100962.00
2022-10-11T21:25:46.418Z,100959.97
2022-10-11T21:28:14.151Z,100965.00
2022-10-11T21:30:41.869Z,100962.84
2022-10-11T21:33:10.960Z,100968.34
2022-10-11T21:35:39.670Z,100959.47
2022-10-11T21:38:07.317Z,100960.47
2022-10-11T21:40:40.767Z,100963.81
2022-10-11T21:43:08.643Z,100963.13
2022-10-11T21:45:40.769Z,100962.41
2022-10-11T21:48:08.443Z,100957.06
2022-10-11T21:50:39.002Z,100959.03
2022-10-11T21:53:06.613Z,100956.34
2022-10-11T21:58:09.387Z,100952.34
2022-10-11T22:00:37.049Z,100950.53
2022-10-11T22:08:23.240Z,100966.94
2022-10-11T22:13:53.509Z,100962.59
2022-10-11T22:16:21.241Z,100962.72
2022-10-11T22:18:49.110Z,100965.88
2022-10-11T22:21:18.521Z,100962.00
2022-10-11T22:23:49.766Z,100969.13
2022-10-11T22:26:19.372Z,100963.78
2022-10-11T22:28:47.318Z,100957.63
2022-10-11T22:31:16.429Z,100960.66
2022-10-11T22:36:16.284Z,100951.31
2022-10-11T22:38:44.750Z,100960.44
2022-10-11T22:41:14.111Z,100953.22
2022-10-11T22:43:41.850Z,100964.75
2022-10-11T22:46:10.197Z,100958.06
2022-10-11T22:48:37.983Z,100955.72
2022-10-11T22:51:05.586Z,100946.63
2022-10-11T22:53:33.597Z,100939.75
2022-10-11T22:56:01.451Z,100939.84
2022-10-11T22:58:30.464Z,100939.34
2022-10-11T23:00:58.069Z,100941.81
2022-10-11T23:03:25.885Z,100944.41
2022-10-11T23:05:57.538Z,100946.09
2022-10-11T23:08:25.507Z,100945.91
2022-10-11T23:10:53.591Z,100945.06
2022-10-11T23:13:21.531Z,100939.19
2022-10-11T23:15:50.624Z,100946.19
2022-10-11T23:18:18.474Z,100942.38
2022-10-11T23:20:46.126Z,100934.38
2022-10-11T23:23:13.833Z,100936.47
2022-10-11T23:25:41.388Z,100948.59
2022-10-11T23:28:09.053Z,100946.84
2022-10-11T23:30:36.625Z,100946.16
2022-10-11T23:33:05.584Z,100955.84
2022-10-11T23:35:35.091Z,100947.00
2022-10-11T23:38:02.750Z,100959.75
2022-10-11T23:40:30.305Z,100954.34
2022-10-11T23:42:58.905Z,100953.84
2022-10-11T23:45:26.482Z,100953.00
2022-10-11T23:47:54.031Z,100954.28
2022-10-11T23:50:23.051Z,100953.91
2022-10-11T23:52:50.693Z,100958.56
2022-10-11T23:55:18.873Z,100962.59
2022-10-11T23:57:46.449Z,100957.88
